createdAt,value
2016-05-08T00:00:40.307Z,0
2016-05-08T00:01:40.340Z,0
2016-05-08T00:02:40.374Z,0
2016-05-08T00:03:40.237Z,0
2016-05-08T00:04:40.411Z,0
2016-05-08T00:05:40.429Z,0
2016-05-08T00:06:40.323Z,0
2016-05-08T00:07:40.498Z,0
2016-05-08T00:08:40.515Z,0
2016-05-08T00:09:40.393Z,0
2016-05-08T00:10:40.568Z,0
2016-05-08T00:11:40.429Z,0
2016-05-08T00:12:40.464Z,0
2016-05-08T00:13:40.639Z,0
2016-05-08T00:14:40.500Z,0
2016-05-08T00:15:40.519Z,0
2016-05-08T00:16:40.709Z,0
2016-05-08T00:17:40.587Z,0
2016-05-08T00:18:40.761Z,0
2016-05-08T00:19:40.780Z,0
2016-05-08T00:20:40.813Z,0
2016-05-08T00:21:40.847Z,0
2016-05-08T00:22:40.851Z,0
2016-05-08T00:23:40.947Z,0
2016-05-08T00:24:40.754Z,0
2016-05-08T00:25:40.927Z,0
2016-05-08T00:26:40.946Z,0
2016-05-08T00:27:42.511Z,0
2016-05-08T00:28:41.015Z,0
2016-05-08T00:29:41.032Z,0
2016-05-08T00:30:40.910Z,0
2016-05-08T00:31:41.085Z,0
2016-05-08T00:32:41.103Z,0
2016-05-08T00:33:40.964Z,0
2016-05-08T00:34:41.155Z,0
2016-05-08T00:35:41.017Z,0
2016-05-08T00:36:41.192Z,0
2016-05-08T00:37:41.085Z,0
2016-05-08T00:38:41.244Z,0
2016-05-08T00:39:41.278Z,0
2016-05-08T00:40:41.296Z,0
2016-05-08T00:41:41.174Z,0
2016-05-08T00:42:41.880Z,0
2016-05-08T00:43:41.383Z,0
2016-05-08T00:44:41.400Z,0
2016-05-08T00:45:41.419Z,0
2016-05-08T00:46:41.453Z,0
2016-05-08T00:47:41.487Z,0
2016-05-08T00:48:41.489Z,0
2016-05-08T00:49:41.524Z,0
2016-05-08T00:50:41.541Z,0
2016-05-08T00:51:41.576Z,0
2016-05-08T00:52:41.281Z,0
2016-05-08T00:53:41.613Z,0
2016-05-08T00:54:41.646Z,0
2016-05-08T00:55:41.352Z,0
2016-05-08T00:56:41.526Z,0
2016-05-08T00:57:41.795Z,0
2016-05-08T00:58:41.765Z,0
2016-05-08T00:59:41.754Z,0
2016-05-08T01:00:41.788Z,0
2016-05-08T01:01:41.806Z,0
2016-05-08T01:02:41.667Z,0
2016-05-08T01:03:41.859Z,0
2016-05-08T01:04:41.876Z,0
2016-05-08T01:05:41.910Z,0
2016-05-08T01:06:41.929Z,0
2016-05-08T01:07:41.790Z,0
2016-05-08T01:08:41.964Z,0
2016-05-08T01:09:41.999Z,0
2016-05-08T01:10:41.736Z,0
2016-05-08T01:11:41.895Z,0
2016-05-08T01:12:42.164Z,0
2016-05-08T01:13:42.103Z,0
2016-05-08T01:14:41.966Z,0
2016-05-08T01:15:42.141Z,0
2016-05-08T01:16:42.175Z,0
2016-05-08T01:17:42.192Z,0
2016-05-08T01:18:42.211Z,0
2016-05-08T01:19:42.244Z,0
2016-05-08T01:20:42.263Z,0
2016-05-08T01:21:42.141Z,0
2016-05-08T01:22:42.300Z,0
2016-05-08T01:23:42.333Z,0
2016-05-08T01:24:42.368Z,0
2016-05-08T01:25:42.386Z,0
2016-05-08T01:26:42.405Z,0
2016-05-08T01:27:42.282Z,0
2016-05-08T01:28:42.302Z,0
2016-05-08T01:29:42.475Z,0
2016-05-08T01:30:42.338Z,0
2016-05-08T01:31:42.527Z,0
2016-05-08T01:32:42.547Z,0
2016-05-08T01:33:42.408Z,0
2016-05-08T01:34:42.443Z,0
2016-05-08T01:35:42.632Z,0
2016-05-08T01:36:42.494Z,0
2016-05-08T01:37:42.668Z,0
2016-05-08T01:38:42.704Z,0
2016-05-08T01:39:42.565Z,0
2016-05-08T01:40:42.740Z,0
2016-05-08T01:41:42.773Z,0
2016-05-08T01:42:42.885Z,0
2016-05-08T01:43:42.810Z,0
2016-05-08T01:44:42.845Z,0
2016-05-08T01:45:42.862Z,0
2016-05-08T01:46:42.740Z,0
2016-05-08T01:47:42.759Z,0
2016-05-08T01:48:42.933Z,0
2016-05-08T01:49:42.795Z,0
2016-05-08T01:50:42.986Z,0
2016-05-08T01:51:42.847Z,0
2016-05-08T01:52:42.866Z,0
2016-05-08T01:53:43.056Z,0
2016-05-08T01:54:43.075Z,0
2016-05-08T01:55:43.124Z,0
2016-05-08T01:56:43.142Z,0
2016-05-08T01:57:43.144Z,0
2016-05-08T01:58:43.163Z,0
2016-05-08T01:59:43.197Z,0
2016-05-08T02:00:43.216Z,0
2016-05-08T02:01:43.250Z,0
2016-05-08T02:02:42.955Z,0
2016-05-08T02:03:43.301Z,0
2016-05-08T02:04:43.163Z,0
2016-05-08T02:05:43.338Z,0
2016-05-08T02:06:43.357Z,0
2016-05-08T02:07:43.391Z,0
2016-05-08T02:08:43.409Z,0
2016-05-08T02:09:43.426Z,0
2016-05-08T02:10:43.305Z,0
2016-05-08T02:11:43.464Z,0
2016-05-08T02:12:44.560Z,0
2016-05-08T02:13:43.532Z,0
2016-05-08T02:14:43.550Z,0
2016-05-08T02:15:43.568Z,0
2016-05-08T02:16:43.601Z,0
2016-05-08T02:17:43.621Z,0
2016-05-08T02:18:43.654Z,0
2016-05-08T02:19:43.673Z,0
2016-05-08T02:20:43.691Z,0
2016-05-08T02:21:43.709Z,0
2016-05-08T02:22:43.743Z,0
2016-05-08T02:23:43.606Z,0
2016-05-08T02:24:43.483Z,0
2016-05-08T02:25:43.658Z,0
2016-05-08T02:26:43.519Z,0
2016-05-08T02:27:44.038Z,0
2016-05-08T02:28:43.916Z,0
2016-05-08T02:29:43.919Z,0
2016-05-08T02:30:43.764Z,0
2016-05-08T02:31:43.939Z,0
2016-05-08T02:32:43.817Z,0
2016-05-08T02:33:43.991Z,0
2016-05-08T02:34:44.010Z,0
2016-05-08T02:35:43.732Z,0
2016-05-08T02:36:44.062Z,0
2016-05-08T02:37:44.080Z,0
2016-05-08T02:38:43.958Z,0
2016-05-08T02:39:44.132Z,0
2016-05-08T02:40:44.166Z,0
2016-05-08T02:41:44.218Z,0
2016-05-08T02:42:44.861Z,0
2016-05-08T02:43:44.364Z,0
2016-05-08T02:44:44.431Z,0
2016-05-08T02:45:44.496Z,0
2016-05-08T02:46:44.573Z,0
2016-05-08T02:47:44.594Z,0
2016-05-08T02:48:44.472Z,0
2016-05-08T02:49:44.664Z,0
2016-05-08T02:50:44.716Z,0
2016-05-08T02:51:44.743Z,0
2016-05-08T02:52:44.768Z,0
2016-05-08T02:53:44.793Z,0
2016-05-08T02:54:44.676Z,0
2016-05-08T02:55:44.856Z,0
2016-05-08T02:56:44.895Z,0
2016-05-08T02:57:44.962Z,0
2016-05-08T02:58:44.780Z,0
2016-05-08T02:59:44.800Z,0
2016-05-08T03:00:44.993Z,0
2016-05-08T03:01:45.012Z,0
2016-05-08T03:02:45.047Z,0
2016-05-08T03:03:45.065Z,0
2016-05-08T03:04:45.085Z,0
2016-05-08T03:05:45.120Z,0
2016-05-08T03:06:45.139Z,0
2016-05-08T03:07:45.173Z,0
2016-05-08T03:08:45.223Z,0
2016-05-08T03:09:45.210Z,0
2016-05-08T03:10:45.229Z,0
2016-05-08T03:11:45.107Z,0
2016-05-08T03:12:45.750Z,0
2016-05-08T03:13:45.143Z,0
2016-05-08T03:14:45.334Z,0
2016-05-08T03:15:45.351Z,0
2016-05-08T03:16:45.371Z,0
2016-05-08T03:17:44.935Z,0
2016-05-08T03:18:45.423Z,0
2016-05-08T03:19:45.440Z,0
2016-05-08T03:20:45.476Z,0
2016-05-08T03:21:45.337Z,0
2016-05-08T03:22:45.512Z,0
2016-05-08T03:23:45.529Z,0
2016-05-08T03:24:45.564Z,0
2016-05-08T03:25:45.425Z,4
2016-05-08T03:26:45.601Z,4
2016-05-08T03:27:45.869Z,0
2016-05-08T03:28:45.653Z,0
2016-05-08T03:29:45.545Z,4
2016-05-08T03:30:45.706Z,4
2016-05-08T03:31:45.722Z,4
2016-05-08T03:32:45.742Z,4
2016-05-08T03:33:45.791Z,4
2016-05-08T03:34:45.637Z,8
2016-05-08T03:35:45.812Z,8
2016-05-08T03:36:45.674Z,8
2016-05-08T03:37:45.849Z,8
2016-05-08T03:38:45.882Z,12
2016-05-08T03:39:45.901Z,12
2016-05-08T03:40:45.935Z,12
2016-05-08T03:41:45.952Z,16
2016-05-08T03:42:45.910Z,16
2016-05-08T03:43:45.990Z,20
2016-05-08T03:44:46.024Z,24
2016-05-08T03:45:45.885Z,24
2016-05-08T03:46:45.920Z,28
2016-05-08T03:47:46.094Z,32
2016-05-08T03:48:46.113Z,36
2016-05-08T03:49:46.131Z,40
2016-05-08T03:50:46.165Z,44
2016-05-08T03:51:46.183Z,48
2016-05-08T03:52:46.201Z,56
2016-05-08T03:53:46.251Z,60
2016-05-08T03:54:45.957Z,68
2016-05-08T03:55:46.272Z,72
2016-05-08T03:56:46.290Z,80
2016-05-08T03:57:46.340Z,84
2016-05-08T03:58:46.342Z,96
2016-05-08T03:59:46.205Z,104
2016-05-08T04:00:46.395Z,112
2016-05-08T04:01:46.101Z,124
2016-05-08T04:02:46.431Z,132
2016-05-08T04:03:46.294Z,148
2016-05-08T04:04:46.483Z,160
2016-05-08T04:05:46.502Z,172
2016-05-08T04:06:46.520Z,184
2016-05-08T04:07:46.555Z,200
2016-05-08T04:08:46.572Z,216
2016-05-08T04:09:46.591Z,232
2016-05-08T04:10:46.469Z,248
2016-05-08T04:11:46.331Z,268
2016-05-08T04:12:46.818Z,288
2016-05-08T04:13:46.696Z,308
2016-05-08T04:14:46.713Z,328
2016-05-08T04:15:46.576Z,352
2016-05-08T04:16:46.766Z,376
2016-05-08T04:17:46.785Z,396
2016-05-08T04:18:46.646Z,420
2016-05-08T04:19:46.837Z,444
2016-05-08T04:20:46.840Z,472
2016-05-08T04:21:46.874Z,496
2016-05-08T04:22:46.907Z,524
2016-05-08T04:23:46.769Z,552
2016-05-08T04:24:46.928Z,580
2016-05-08T04:25:46.962Z,612
2016-05-08T04:26:46.981Z,644
2016-05-08T04:27:47.015Z,672
2016-05-08T04:28:46.876Z,708
2016-05-08T04:29:47.050Z,740
2016-05-08T04:30:47.084Z,772
2016-05-08T04:31:47.104Z,808
2016-05-08T04:32:47.106Z,844
2016-05-08T04:33:46.999Z,880
2016-05-08T04:34:47.017Z,916
2016-05-08T04:35:47.191Z,948
2016-05-08T04:36:47.226Z,984
2016-05-08T04:37:47.244Z,1024
2016-05-08T04:38:47.263Z,1056
2016-05-08T04:39:47.280Z,1092
2016-05-08T04:40:47.300Z,1128
2016-05-08T04:41:47.161Z,1160
2016-05-08T04:42:47.632Z,1192
2016-05-08T04:43:47.229Z,1224
2016-05-08T04:44:47.248Z,1256
2016-05-08T04:45:47.421Z,1288
2016-05-08T04:46:47.441Z,1320
2016-05-08T04:47:47.474Z,1352
2016-05-08T04:48:47.492Z,1384
2016-05-08T04:49:47.510Z,1416
2016-05-08T04:50:47.530Z,1448
2016-05-08T04:51:47.251Z,1480
2016-05-08T04:52:47.410Z,1512
2016-05-08T04:53:47.443Z,1544
2016-05-08T04:54:47.618Z,1576
2016-05-08T04:55:47.651Z,1604
2016-05-08T04:56:47.671Z,1632
2016-05-08T04:57:47.876Z,1664
2016-05-08T04:58:47.722Z,1692
2016-05-08T04:59:47.756Z,1716
2016-05-08T05:00:47.619Z,1748
2016-05-08T05:01:47.778Z,1772
2016-05-08T05:02:47.656Z,1800
2016-05-08T05:03:47.830Z,1824
2016-05-08T05:04:47.708Z,1856
2016-05-08T05:05:47.882Z,1880
2016-05-08T05:06:47.744Z,1908
2016-05-08T05:07:47.778Z,1932
2016-05-08T05:08:47.797Z,1964
2016-05-08T05:09:47.814Z,1988
2016-05-08T05:10:47.989Z,2016
2016-05-08T05:11:48.024Z,2040
2016-05-08T05:12:48.697Z,2060
2016-05-08T05:13:48.075Z,2088
2016-05-08T05:14:48.094Z,2108
2016-05-08T05:15:48.112Z,2124
2016-05-08T05:16:47.990Z,2140
2016-05-08T05:17:48.008Z,2156
2016-05-08T05:18:48.167Z,2172
2016-05-08T05:19:48.201Z,2188
2016-05-08T05:20:48.235Z,2208
2016-05-08T05:21:48.238Z,2228
2016-05-08T05:22:48.271Z,2244
2016-05-08T05:23:48.290Z,2268
2016-05-08T05:24:48.309Z,2288
2016-05-08T05:25:48.343Z,2308
2016-05-08T05:26:48.360Z,2336
2016-05-08T05:27:48.613Z,2364
2016-05-08T05:28:48.412Z,2396
2016-05-08T05:29:48.447Z,2428
2016-05-08T05:30:48.465Z,2464
2016-05-08T05:31:48.468Z,2500
2016-05-08T05:32:48.501Z,2540
2016-05-08T05:33:48.364Z,2580
2016-05-08T05:34:48.539Z,2616
2016-05-08T05:35:48.573Z,2756
2016-05-08T05:36:48.278Z,5104
2016-05-08T05:37:48.624Z,9040
2016-05-08T05:38:48.642Z,13548
2016-05-08T05:39:48.505Z,17952
2016-05-08T05:40:48.680Z,20160
2016-05-08T05:41:48.558Z,20480
2016-05-08T05:42:48.653Z,20768
2016-05-08T05:43:48.765Z,21312
2016-05-08T05:44:48.799Z,21504
2016-05-08T05:45:48.803Z,21760
2016-05-08T05:46:48.680Z,20832
2016-05-08T05:47:48.855Z,20288
2016-05-08T05:48:48.873Z,21120
2016-05-08T05:49:48.907Z,20800
2016-05-08T05:50:48.924Z,19968
2016-05-08T05:51:48.944Z,20544
2016-05-08T05:52:48.821Z,21664
2016-05-08T05:53:48.855Z,21184
2016-05-08T05:54:48.873Z,18752
2016-05-08T05:55:49.048Z,17280
2016-05-08T05:56:48.925Z,18784
2016-05-08T05:57:48.881Z,21056
2016-05-08T05:58:49.134Z,21856
2016-05-08T05:59:49.153Z,22144
2016-05-08T06:00:48.858Z,22368
2016-05-08T06:01:48.892Z,22560
2016-05-08T06:02:49.223Z,22752
2016-05-08T06:03:49.242Z,22624
2016-05-08T06:04:49.120Z,22784
2016-05-08T06:05:49.294Z,22944
2016-05-08T06:06:49.327Z,23072
2016-05-08T06:07:49.189Z,23264
2016-05-08T06:08:49.380Z,23008
2016-05-08T06:09:49.241Z,23520
2016-05-08T06:10:49.276Z,23776
2016-05-08T06:11:49.294Z,23712
2016-05-08T06:12:50.594Z,23520
2016-05-08T06:13:49.503Z,23616
2016-05-08T06:14:49.364Z,23520
2016-05-08T06:15:49.399Z,23072
2016-05-08T06:16:49.573Z,22976
2016-05-08T06:17:49.451Z,22880
2016-05-08T06:18:49.469Z,22784
2016-05-08T06:19:49.503Z,22816
2016-05-08T06:20:49.537Z,23072
2016-05-08T06:21:49.712Z,23040
2016-05-08T06:22:49.729Z,22976
2016-05-08T06:23:49.763Z,23456
2016-05-08T06:24:49.782Z,24064
2016-05-08T06:25:49.659Z,24832
2016-05-08T06:26:49.679Z,25472
2016-05-08T06:27:49.728Z,25632
2016-05-08T06:28:49.887Z,26240
2016-05-08T06:29:49.920Z,26368
2016-05-08T06:30:49.798Z,26880
2016-05-08T06:31:49.817Z,27296
2016-05-08T06:32:49.834Z,27776
2016-05-08T06:33:50.025Z,27616
2016-05-08T06:34:50.059Z,27360
2016-05-08T06:35:50.062Z,27392
2016-05-08T06:36:50.111Z,27296
2016-05-08T06:37:50.145Z,26976
2016-05-08T06:38:50.147Z,26848
2016-05-08T06:39:50.025Z,26752
2016-05-08T06:40:50.216Z,26848
2016-05-08T06:41:49.922Z,27168
2016-05-08T06:42:51.456Z,27456
2016-05-08T06:43:50.130Z,27296
2016-05-08T06:44:50.336Z,27392
2016-05-08T06:45:50.183Z,27360
2016-05-08T06:46:50.216Z,27264
2016-05-08T06:47:50.235Z,27200
2016-05-08T06:48:50.269Z,27200
2016-05-08T06:49:50.443Z,27360
2016-05-08T06:50:50.477Z,27616
2016-05-08T06:51:50.496Z,28096
2016-05-08T06:52:50.374Z,28224
2016-05-08T06:53:50.391Z,28256
2016-05-08T06:54:50.582Z,27968
2016-05-08T06:55:50.599Z,27648
2016-05-08T06:56:50.493Z,27296
2016-05-08T06:57:50.714Z,27488
2016-05-08T06:58:50.373Z,27424
2016-05-08T06:59:50.720Z,27040
2016-05-08T07:00:50.738Z,27584
2016-05-08T07:01:50.773Z,28256
2016-05-08T07:02:50.806Z,28000
2016-05-08T07:03:50.825Z,27872
2016-05-08T07:04:50.703Z,27456
2016-05-08T07:05:50.892Z,27520
2016-05-08T07:06:50.911Z,27584
2016-05-08T07:07:50.928Z,27488
2016-05-08T07:08:50.806Z,27552
2016-05-08T07:09:50.981Z,27776
2016-05-08T07:10:51.030Z,27552
2016-05-08T07:11:50.892Z,27712
2016-05-08T07:12:50.895Z,28032
2016-05-08T07:13:51.102Z,28224
2016-05-08T07:14:51.120Z,28224
2016-05-08T07:15:51.153Z,28640
2016-05-08T07:16:51.188Z,29120
2016-05-08T07:17:51.221Z,29088
2016-05-08T07:18:51.240Z,29184
2016-05-08T07:19:51.258Z,28832
2016-05-08T07:20:51.307Z,28640
2016-05-08T07:21:51.327Z,28928
2016-05-08T07:22:51.360Z,28544
2016-05-08T07:23:51.379Z,28096
2016-05-08T07:24:51.257Z,28288
2016-05-08T07:25:51.430Z,28352
2016-05-08T07:26:51.465Z,28064
2016-05-08T07:27:51.780Z,27712
2016-05-08T07:28:51.532Z,27360
2016-05-08T07:29:51.550Z,27328
2016-05-08T07:30:51.429Z,27296
2016-05-08T07:31:51.462Z,27008
2016-05-08T07:32:51.637Z,26720
2016-05-08T07:33:51.499Z,26368
2016-05-08T07:34:51.533Z,26112
2016-05-08T07:35:51.723Z,25504
2016-05-08T07:36:51.757Z,25760
2016-05-08T07:37:51.792Z,25504
2016-05-08T07:38:51.825Z,25248
2016-05-08T07:39:51.842Z,24800
2016-05-08T07:40:51.706Z,24544
2016-05-08T07:41:51.786Z,24384
2016-05-08T07:42:51.930Z,23968
2016-05-08T07:43:51.807Z,23648
2016-05-08T07:44:51.981Z,23200
2016-05-08T07:45:52.016Z,22816
2016-05-08T07:46:52.034Z,22592
2016-05-08T07:47:52.052Z,21984
2016-05-08T07:48:52.101Z,21600
2016-05-08T07:49:52.119Z,21664
2016-05-08T07:50:51.997Z,21504
2016-05-08T07:51:52.172Z,21280
2016-05-08T07:52:52.207Z,21088
2016-05-08T07:53:52.240Z,20640
2016-05-08T07:54:52.258Z,20640
2016-05-08T07:55:52.136Z,20800
2016-05-08T07:56:52.013Z,20608
2016-05-08T07:57:52.563Z,20416
2016-05-08T07:58:52.379Z,20096
2016-05-08T07:59:52.256Z,19808
2016-05-08T08:00:52.431Z,19328
2016-05-08T08:01:52.309Z,19072
2016-05-08T08:02:52.498Z,18912
2016-05-08T08:03:52.361Z,18528
2016-05-08T08:04:52.254Z,18240
2016-05-08T08:05:52.570Z,17744
2016-05-08T08:06:52.290Z,12732
2016-05-08T08:07:52.637Z,5836
2016-05-08T08:08:52.656Z,2936
2016-05-08T08:09:52.673Z,2800
2016-05-08T08:10:52.723Z,2736
2016-05-08T08:11:52.742Z,2700
2016-05-08T08:12:53.431Z,2676
2016-05-08T08:13:52.794Z,2652
2016-05-08T08:14:52.828Z,2640
2016-05-08T08:15:52.534Z,2620
2016-05-08T08:16:52.896Z,2612
2016-05-08T08:17:52.899Z,2600
2016-05-08T08:18:52.933Z,2588
2016-05-08T08:19:52.966Z,2580
2016-05-08T08:20:52.985Z,2572
2016-05-08T08:21:52.863Z,2568
2016-05-08T08:22:52.740Z,2564
2016-05-08T08:23:53.071Z,2556
2016-05-08T08:24:53.105Z,2548
2016-05-08T08:25:53.123Z,2528
2016-05-08T08:26:53.157Z,2524
2016-05-08T08:27:53.488Z,2520
2016-05-08T08:28:53.054Z,2516
2016-05-08T08:29:53.087Z,2512
2016-05-08T08:30:53.105Z,2504
2016-05-08T08:31:53.140Z,2500
2016-05-08T08:32:53.329Z,2492
2016-05-08T08:33:53.348Z,2480
2016-05-08T08:34:53.381Z,2472
2016-05-08T08:35:53.400Z,2460
2016-05-08T08:36:53.434Z,2452
2016-05-08T08:37:53.468Z,2452
2016-05-08T08:38:53.330Z,2448
2016-05-08T08:39:53.364Z,2440
2016-05-08T08:40:53.539Z,2432
2016-05-08T08:41:53.573Z,2424
2016-05-08T08:42:53.872Z,2416
2016-05-08T08:43:53.624Z,2404
2016-05-08T08:44:53.502Z,2404
2016-05-08T08:45:53.677Z,2392
2016-05-08T08:46:53.711Z,2392
2016-05-08T08:47:53.729Z,2380
2016-05-08T08:48:53.763Z,2372
2016-05-08T08:49:53.797Z,2368
2016-05-08T08:50:53.816Z,2356
2016-05-08T08:51:53.849Z,2356
2016-05-08T08:52:53.727Z,2352
2016-05-08T08:53:53.901Z,2344
2016-05-08T08:54:53.919Z,2332
2016-05-08T08:55:53.797Z,2328
2016-05-08T08:56:53.987Z,2320
2016-05-08T08:57:54.553Z,2316
2016-05-08T08:58:53.899Z,2308
2016-05-08T08:59:54.043Z,2300
2016-05-08T09:00:53.936Z,2288
2016-05-08T09:01:54.110Z,2280
2016-05-08T09:02:53.988Z,2272
2016-05-08T09:03:54.162Z,2268
2016-05-08T09:04:54.212Z,2264
2016-05-08T09:05:54.074Z,2260
2016-05-08T09:06:54.248Z,2252
2016-05-08T09:07:54.268Z,2244
2016-05-08T09:08:54.301Z,2236
2016-05-08T09:09:54.350Z,2232
2016-05-08T09:10:54.198Z,2220
2016-05-08T09:11:54.387Z,2216
2016-05-08T09:12:56.250Z,2212
2016-05-08T09:13:54.283Z,2204
2016-05-08T09:14:54.473Z,2196
2016-05-08T09:15:54.336Z,2188
2016-05-08T09:16:54.369Z,2180
2016-05-08T09:17:54.544Z,2180
2016-05-08T09:18:54.421Z,2180
2016-05-08T09:19:54.628Z,2180
2016-05-08T09:20:54.631Z,2176
2016-05-08T09:21:54.664Z,2176
2016-05-08T09:22:54.683Z,2172
2016-05-08T09:23:54.560Z,2172
2016-05-08T09:24:54.735Z,2172
2016-05-08T09:25:54.613Z,2168
2016-05-08T09:26:54.630Z,2164
2016-05-08T09:27:54.883Z,2164
2016-05-08T09:28:54.840Z,2160
2016-05-08T09:29:54.874Z,2156
2016-05-08T09:30:54.891Z,2140
2016-05-08T09:31:54.926Z,2132
2016-05-08T09:32:54.803Z,2136
2016-05-08T09:33:54.979Z,2136
2016-05-08T09:34:55.012Z,2132
2016-05-08T09:35:55.045Z,2132
2016-05-08T09:36:55.064Z,2128
2016-05-08T09:38:19.457Z,2132
2016-05-08T09:38:55.117Z,2132
2016-05-08T09:39:54.978Z,2132
2016-05-08T09:40:55.012Z,2132
2016-05-08T09:41:55.046Z,2132
2016-05-08T09:42:55.080Z,2140
2016-05-08T09:43:55.255Z,2144
2016-05-08T09:44:55.272Z,2148
2016-05-08T09:45:55.150Z,2152
2016-05-08T09:46:55.342Z,2168
2016-05-08T09:47:55.359Z,2176
2016-05-08T09:48:55.222Z,2180
2016-05-08T09:49:55.411Z,2180
2016-05-08T09:50:55.274Z,2168
2016-05-08T09:51:55.495Z,2172
2016-05-08T09:52:55.497Z,2180
2016-05-08T09:53:55.360Z,2180
2016-05-08T09:54:55.549Z,2188
2016-05-08T09:55:55.569Z,2184
2016-05-08T09:56:55.586Z,2192
2016-05-08T09:57:55.480Z,2192
2016-05-08T09:58:55.655Z,2204
2016-05-08T09:59:55.532Z,2212
2016-05-08T10:00:55.707Z,2220
2016-05-08T10:01:55.740Z,2224
2016-05-08T10:02:55.602Z,2264
2016-05-08T10:03:55.777Z,2320
2016-05-08T10:04:55.796Z,2360
2016-05-08T10:05:55.689Z,2356
2016-05-08T10:06:55.879Z,2400
2016-05-08T10:07:55.898Z,2420
2016-05-08T10:08:55.915Z,2444
2016-05-08T10:09:55.950Z,2412
2016-05-08T10:10:55.983Z,2400
2016-05-08T10:11:56.001Z,2436
2016-05-08T10:12:56.037Z,2504
2016-05-08T10:13:55.897Z,2536
2016-05-08T10:14:56.073Z,2596
2016-05-08T10:15:56.106Z,2556
2016-05-08T10:16:56.140Z,2664
2016-05-08T10:17:56.003Z,2680
2016-05-08T10:18:56.192Z,2708
2016-05-08T10:19:56.211Z,2744
2016-05-08T10:20:56.089Z,2792
2016-05-08T10:21:56.263Z,2788
2016-05-08T10:22:56.313Z,2764
2016-05-08T10:23:56.311Z,2712
2016-05-08T10:24:56.189Z,2728
2016-05-08T10:25:56.378Z,2740
2016-05-08T10:26:56.241Z,2732
2016-05-08T10:27:56.305Z,2780
2016-05-08T10:28:56.308Z,2864
2016-05-08T10:29:56.327Z,3024
2016-05-08T10:30:56.345Z,3200
2016-05-08T10:31:56.379Z,3240
2016-05-08T10:32:56.569Z,3196
2016-05-08T10:33:56.432Z,3092
2016-05-08T10:35:02.559Z,2948
2016-05-08T10:35:56.483Z,2800
2016-05-08T10:36:56.517Z,2632
2016-05-08T10:37:56.692Z,2476
2016-05-08T10:38:56.710Z,2332
2016-05-08T10:39:56.587Z,2248
2016-05-08T10:40:56.621Z,2196
2016-05-08T10:41:56.656Z,2200
2016-05-08T10:42:56.846Z,2200
2016-05-08T10:43:56.848Z,2204
2016-05-08T10:44:56.898Z,2204
2016-05-08T10:45:56.901Z,2196
2016-05-08T10:46:56.935Z,2196
2016-05-08T10:47:56.953Z,2184
2016-05-08T10:48:56.831Z,2172
2016-05-08T10:49:57.006Z,2156
2016-05-08T10:50:57.040Z,2148
2016-05-08T10:51:57.073Z,2144
2016-05-08T10:52:57.108Z,2136
2016-05-08T10:53:57.110Z,2136
2016-05-08T10:54:57.144Z,2136
2016-05-08T10:55:57.162Z,2132
2016-05-08T10:56:57.197Z,2136
2016-05-08T10:57:57.371Z,2132
2016-05-08T10:58:57.108Z,2128
2016-05-08T10:59:57.127Z,2124
2016-05-08T11:00:57.300Z,2128
2016-05-08T11:01:57.335Z,2132
2016-05-08T11:02:57.352Z,2136
2016-05-08T11:03:57.387Z,2144
2016-05-08T11:04:57.404Z,2144
2016-05-08T11:05:57.438Z,2152
2016-05-08T11:06:57.161Z,2172
2016-05-08T11:07:57.491Z,2172
2016-05-08T11:08:57.368Z,2172
2016-05-08T11:09:57.543Z,2192
2016-05-08T11:10:57.577Z,2216
2016-05-08T11:11:57.596Z,2224
2016-05-08T11:12:57.676Z,2224
2016-05-08T11:13:57.648Z,2216
2016-05-08T11:14:57.682Z,2200
2016-05-08T11:15:57.545Z,2184
2016-05-08T11:16:57.735Z,2128
2016-05-08T11:17:57.753Z,2144
2016-05-08T11:18:57.787Z,2140
2016-05-08T11:19:57.820Z,2128
2016-05-08T11:20:57.839Z,2120
2016-05-08T11:21:57.872Z,2120
2016-05-08T11:22:57.734Z,2128
2016-05-08T11:23:57.925Z,2116
2016-05-08T11:24:57.787Z,2120
2016-05-08T11:25:57.821Z,2112
2016-05-08T11:26:57.995Z,2112
2016-05-08T11:27:58.233Z,2104
2016-05-08T11:28:57.891Z,2092
2016-05-08T11:29:57.925Z,2100
2016-05-08T11:30:58.099Z,2112
2016-05-08T11:31:58.728Z,2108
2016-05-08T11:32:57.997Z,2104
2016-05-08T11:33:58.014Z,2104
2016-05-08T11:34:58.205Z,2096
2016-05-08T11:35:58.238Z,2088
2016-05-08T11:36:58.101Z,2092
2016-05-08T11:37:58.291Z,2092
2016-05-08T11:38:58.309Z,2076
2016-05-08T11:39:58.343Z,2072
2016-05-08T11:40:58.362Z,2064
2016-05-08T11:41:58.395Z,2068
2016-05-08T11:42:58.429Z,2056
2016-05-08T11:43:58.291Z,2040
2016-05-08T11:44:58.481Z,2048
2016-05-08T11:45:58.500Z,2052
2016-05-08T11:46:58.533Z,2044
2016-05-08T11:47:58.600Z,2032
2016-05-08T11:48:58.520Z,2032
2016-05-08T11:49:58.720Z,2040
2016-05-08T11:50:58.640Z,2040
2016-05-08T11:51:58.544Z,2044
2016-05-08T11:52:58.755Z,2048
2016-05-08T11:53:58.789Z,2040
2016-05-08T11:54:58.993Z,2044
2016-05-08T11:55:58.871Z,2040
2016-05-08T11:56:58.919Z,2048
2016-05-08T11:57:59.117Z,2048
2016-05-08T11:58:58.985Z,2048
2016-05-08T11:59:59.024Z,2052
2016-05-08T12:00:59.204Z,2052
2016-05-08T12:01:59.243Z,2048
2016-05-08T12:02:59.265Z,2056
2016-05-08T12:03:59.128Z,2052
2016-05-08T12:04:59.164Z,2048
2016-05-08T12:05:59.200Z,2056
2016-05-08T12:06:59.361Z,2060
2016-05-08T12:07:59.426Z,2076
2016-05-08T12:08:59.446Z,2064
2016-05-08T12:09:59.294Z,2072
2016-05-08T12:10:59.500Z,2084
2016-05-08T12:11:59.520Z,2084
2016-05-08T12:12:59.381Z,2084
2016-05-08T12:13:59.570Z,2080
2016-05-08T12:14:59.621Z,2088
2016-05-08T12:15:59.608Z,2084
2016-05-08T12:16:59.642Z,2084
2016-05-08T12:17:59.675Z,2084
2016-05-08T12:18:59.554Z,2084
2016-05-08T12:19:59.729Z,2084
2016-05-08T12:20:59.590Z,2088
2016-05-08T12:21:59.625Z,2080
2016-05-08T12:22:59.830Z,2084
2016-05-08T12:23:59.833Z,2092
2016-05-08T12:24:59.850Z,2096
2016-05-08T12:25:59.885Z,2096
2016-05-08T12:26:59.919Z,2104
2016-05-08T12:27:59.984Z,2100
2016-05-08T12:28:59.846Z,2100
2016-05-08T12:29:59.989Z,2104
2016-05-08T12:31:00.008Z,2096
2016-05-08T12:32:00.057Z,2096
2016-05-08T12:33:00.060Z,2100
2016-05-08T12:34:00.093Z,2108
2016-05-08T12:35:00.128Z,2104
2016-05-08T12:35:59.991Z,2096
2016-05-08T12:37:00.180Z,2096
2016-05-08T12:38:00.043Z,2100
2016-05-08T12:38:59.920Z,2096
2016-05-08T12:40:00.251Z,2092
2016-05-08T12:41:00.285Z,2096
2016-05-08T12:42:00.303Z,2100
2016-05-08T12:43:00.024Z,2104
2016-05-08T12:44:00.199Z,2112
2016-05-08T12:45:00.217Z,2112
2016-05-08T12:46:00.407Z,2112
2016-05-08T12:47:00.129Z,2116
2016-05-08T12:48:00.147Z,2120
2016-05-08T12:49:00.337Z,2112
2016-05-08T12:50:00.527Z,2108
2016-05-08T12:51:00.545Z,2112
2016-05-08T12:52:00.581Z,2112
2016-05-08T12:53:00.598Z,2108
2016-05-08T12:54:00.617Z,2104
2016-05-08T12:55:00.666Z,2108
2016-05-08T12:56:00.513Z,2104
2016-05-08T12:57:00.702Z,2100
2016-05-08T12:58:00.564Z,2100
2016-05-08T12:59:00.599Z,2112
2016-05-08T13:00:00.789Z,2108
2016-05-08T13:01:00.808Z,2108
2016-05-08T13:02:00.825Z,2112
2016-05-08T13:03:00.703Z,2108
2016-05-08T13:04:00.893Z,2112
2016-05-08T13:05:00.755Z,2112
2016-05-08T13:06:00.930Z,2112
2016-05-08T13:07:00.979Z,2112
2016-05-08T13:08:00.998Z,2116
2016-05-08T13:09:00.860Z,2112
2016-05-08T13:10:00.894Z,2120
2016-05-08T13:11:01.068Z,2116
2016-05-08T13:12:00.930Z,2116
2016-05-08T13:13:00.824Z,2128
2016-05-08T13:14:01.154Z,2128
2016-05-08T13:15:01.173Z,2124
2016-05-08T13:16:01.206Z,2120
2016-05-08T13:17:01.226Z,2124
2016-05-08T13:18:01.275Z,2124
2016-05-08T13:19:01.278Z,2124
2016-05-08T13:20:01.311Z,2124
2016-05-08T13:21:01.345Z,2136
2016-05-08T13:22:01.379Z,2128
2016-05-08T13:23:01.381Z,2132
2016-05-08T13:24:01.416Z,2144
2016-05-08T13:25:01.450Z,2140
2016-05-08T13:26:01.468Z,2148
2016-05-08T13:27:01.189Z,2152
2016-05-08T13:28:01.520Z,2160
2016-05-08T13:29:01.555Z,2156
2016-05-08T13:30:01.572Z,2156
2016-05-08T13:31:01.607Z,2152
2016-05-08T13:32:01.641Z,2164
2016-05-08T13:33:01.643Z,2184
2016-05-08T13:34:01.677Z,2188
2016-05-08T13:35:01.711Z,2176
2016-05-08T13:36:01.745Z,2180
2016-05-08T13:37:01.763Z,2172
2016-05-08T13:38:01.782Z,2164